createdAt,value
2019-01-08T00:00:40.674Z,2.90
2019-01-08T00:03:09.886Z,2.70
2019-01-08T00:05:39.312Z,3.13
2019-01-08T00:08:08.404Z,2.17
2019-01-08T00:10:37.508Z,3.30
2019-01-08T00:13:06.882Z,2.57
2019-01-08T00:15:35.993Z,3.33
2019-01-08T00:18:05.122Z,2.53
2019-01-08T00:20:34.354Z,3.80
2019-01-08T00:23:03.450Z,3.63
2019-01-08T00:25:32.574Z,3.07
2019-01-08T00:28:02.027Z,3.10
2019-01-08T00:30:31.087Z,3.03
2019-01-08T00:33:00.086Z,3.17
2019-01-08T00:35:29.244Z,2.97
2019-01-08T00:37:58.343Z,3.13
2019-01-08T00:40:28.506Z,3.03
2019-01-08T00:42:57.767Z,2.70
2019-01-08T00:45:26.774Z,3.87
2019-01-08T00:47:55.847Z,3.17
2019-01-08T00:50:25.203Z,2.93
2019-01-08T00:52:54.269Z,2.80
2019-01-08T00:55:23.339Z,3.00
2019-01-08T00:57:52.578Z,3.03
2019-01-08T01:00:22.498Z,2.73
2019-01-08T01:02:51.635Z,2.90
2019-01-08T01:05:20.871Z,3.00
2019-01-08T01:07:50.024Z,2.70
2019-01-08T01:10:19.193Z,3.17
2019-01-08T01:12:48.439Z,3.67
2019-01-08T01:15:17.496Z,3.07
2019-01-08T01:17:46.575Z,3.10
2019-01-08T01:20:15.841Z,3.03
2019-01-08T01:22:44.987Z,3.47
2019-01-08T01:25:14.085Z,3.03
2019-01-08T01:27:43.429Z,2.70
2019-01-08T01:30:12.591Z,2.83
2019-01-08T01:32:41.638Z,3.10
2019-01-08T01:35:10.891Z,2.80
2019-01-08T01:37:39.913Z,4.20
2019-01-08T01:40:08.999Z,3.53
2019-01-08T01:42:38.325Z,2.77
2019-01-08T01:45:07.404Z,2.40
2019-01-08T01:47:36.536Z,2.43
2019-01-08T01:50:06.266Z,3.53
2019-01-08T01:52:35.355Z,2.77
2019-01-08T01:55:05.099Z,3.17
2019-01-08T01:57:34.316Z,3.13
2019-01-08T02:00:03.411Z,2.47
2019-01-08T02:02:32.498Z,2.53
2019-01-08T02:05:01.804Z,3.30
2019-01-08T02:07:30.808Z,3.60
2019-01-08T02:09:59.903Z,2.60
2019-01-08T02:12:29.190Z,3.13
2019-01-08T02:14:58.196Z,3.17
2019-01-08T02:17:27.248Z,3.57
2019-01-08T02:19:56.678Z,3.30
2019-01-08T02:22:26.582Z,3.23
2019-01-08T02:24:57.058Z,2.77
2019-01-08T02:27:26.214Z,3.17
2019-01-08T02:29:55.231Z,3.07
2019-01-08T02:32:24.615Z,3.70
2019-01-08T02:34:53.626Z,3.77
2019-01-08T02:37:41.960Z,3.63
2019-01-08T02:40:11.106Z,3.43
2019-01-08T02:42:40.322Z,3.93
2019-01-08T02:45:09.661Z,3.80
2019-01-08T02:47:38.787Z,3.57
2019-01-08T02:50:07.915Z,2.97
2019-01-08T02:52:37.347Z,4.00
2019-01-08T02:55:06.469Z,3.40
2019-01-08T02:57:35.703Z,3.40
2019-01-08T03:00:05.697Z,3.50
2019-01-08T03:02:34.781Z,3.90
2019-01-08T03:05:04.065Z,3.37
2019-01-08T03:07:39.512Z,3.10
2019-01-08T03:10:08.618Z,3.17
2019-01-08T03:12:37.814Z,3.50
2019-01-08T03:15:07.203Z,3.30
2019-01-08T03:17:36.297Z,3.73
2019-01-08T03:20:05.780Z,3.10
2019-01-08T03:22:54.149Z,3.40
2019-01-08T03:25:23.276Z,2.63
2019-01-08T03:27:52.280Z,4.13
2019-01-08T03:30:21.510Z,3.13
2019-01-08T03:32:50.619Z,3.73
2019-01-08T03:35:19.811Z,3.40
2019-01-08T03:37:48.959Z,3.23
2019-01-08T03:40:18.043Z,3.93
2019-01-08T03:42:47.144Z,2.93
2019-01-08T03:45:16.417Z,3.50
2019-01-08T03:47:48.469Z,3.47
2019-01-08T03:50:17.901Z,3.10
2019-01-08T03:52:47.039Z,3.30
2019-01-08T03:55:16.112Z,4.07
2019-01-08T03:57:45.467Z,3.63
2019-01-08T04:00:15.638Z,3.37
2019-01-08T04:02:44.756Z,3.67
2019-01-08T04:05:14.090Z,4.17
2019-01-08T04:08:02.328Z,2.90
2019-01-08T04:10:31.740Z,3.40
2019-01-08T04:13:00.892Z,3.63
2019-01-08T04:15:30.114Z,3.67
2019-01-08T04:17:59.427Z,4.40
2019-01-08T04:20:28.450Z,3.23
2019-01-08T04:22:57.474Z,3.73
2019-01-08T04:25:26.816Z,4.37
2019-01-08T04:27:56.049Z,3.73
2019-01-08T04:30:25.140Z,3.77
2019-01-08T04:32:54.552Z,3.40
2019-01-08T04:35:25.455Z,3.50
2019-01-08T04:37:55.670Z,3.83
2019-01-08T04:40:24.872Z,4.00
2019-01-08T04:42:53.917Z,3.50
2019-01-08T04:45:23.158Z,3.10
2019-01-08T04:47:52.151Z,3.40
2019-01-08T04:50:21.250Z,4.00
2019-01-08T04:52:50.554Z,4.00
2019-01-08T04:55:19.626Z,3.97
2019-01-08T04:57:48.818Z,3.73
2019-01-08T05:00:18.832Z,3.50
2019-01-08T05:02:49.071Z,3.27
2019-01-08T05:05:18.232Z,3.77
2019-01-08T05:07:47.549Z,3.80
2019-01-08T05:10:16.615Z,4.37
2019-01-08T05:12:45.610Z,3.50
2019-01-08T05:15:14.969Z,3.70
2019-01-08T05:17:43.988Z,2.90
2019-01-08T05:20:13.075Z,2.63
2019-01-08T05:22:42.459Z,3.23
2019-01-08T05:25:11.554Z,3.37
2019-01-08T05:27:40.607Z,3.50
2019-01-08T05:30:10.275Z,3.27
2019-01-08T05:32:39.409Z,3.93
2019-01-08T05:35:08.551Z,3.53
2019-01-08T05:37:37.877Z,2.80
2019-01-08T05:40:07.069Z,3.10
2019-01-08T05:42:36.091Z,3.43
2019-01-08T05:45:05.775Z,2.73
2019-01-08T05:47:34.911Z,3.10
2019-01-08T05:50:04.498Z,4.57
2019-01-08T05:52:33.757Z,3.40
2019-01-08T05:55:02.832Z,3.23
2019-01-08T05:57:31.903Z,5.17
2019-01-08T06:00:01.154Z,3.67
2019-01-08T06:02:30.242Z,3.70
2019-01-08T06:04:59.394Z,3.50
2019-01-08T06:07:28.638Z,3.40
2019-01-08T06:09:57.731Z,2.07
2019-01-08T06:12:26.810Z,1.87
2019-01-08T06:14:55.987Z,1.90
2019-01-08T06:17:25.074Z,1.50
2019-01-08T06:19:55.218Z,1.47
2019-01-08T06:22:24.671Z,1.40
2019-01-08T06:24:53.711Z,1.70
2019-01-08T06:27:22.819Z,2.47
2019-01-08T06:29:52.128Z,2.83
2019-01-08T06:32:21.209Z,2.37
2019-01-08T06:34:50.307Z,2.30
2019-01-08T06:37:19.465Z,2.40
2019-01-08T06:40:07.711Z,3.13
2019-01-08T06:42:37.163Z,3.00
2019-01-08T06:45:06.653Z,3.70
2019-01-08T06:47:35.714Z,3.67
2019-01-08T06:50:05.711Z,3.57
2019-01-08T06:52:34.969Z,5.27
2019-01-08T06:55:04.278Z,3.27
2019-01-08T06:57:33.582Z,4.17
2019-01-08T07:00:02.737Z,3.83
2019-01-08T07:02:32.257Z,3.50
2019-01-08T07:05:01.795Z,3.20
2019-01-08T07:07:30.999Z,3.23
2019-01-08T07:10:00.087Z,3.10
2019-01-08T07:12:29.605Z,3.33
2019-01-08T07:14:58.670Z,3.60
2019-01-08T07:17:27.695Z,3.70
2019-01-08T07:19:56.836Z,2.33
2019-01-08T07:22:25.913Z,3.57
2019-01-08T07:24:55.038Z,3.23
2019-01-08T07:27:24.361Z,2.57
2019-01-08T07:29:53.359Z,3.37
2019-01-08T07:32:22.407Z,2.10
2019-01-08T07:34:51.747Z,2.47
2019-01-08T07:37:20.929Z,2.40
2019-01-08T07:39:49.944Z,2.37
2019-01-08T07:42:19.349Z,3.13
2019-01-08T07:44:48.408Z,3.20
2019-01-08T07:47:17.453Z,2.93
2019-01-08T07:49:46.785Z,3.20
2019-01-08T07:52:15.912Z,3.53
2019-01-08T07:54:44.963Z,3.10
2019-01-08T07:57:14.264Z,2.83
2019-01-08T07:59:43.351Z,4.37
2019-01-08T08:02:12.420Z,3.33
2019-01-08T08:04:47.451Z,3.70
2019-01-08T08:07:12.548Z,3.30
2019-01-08T08:09:41.614Z,3.70
2019-01-08T08:12:10.849Z,2.63
2019-01-08T08:14:39.950Z,2.10
2019-01-08T08:17:09.069Z,2.37
2019-01-08T08:19:38.449Z,2.87
2019-01-08T08:22:07.494Z,2.67
2019-01-08T08:24:36.576Z,3.23
2019-01-08T08:27:05.822Z,2.40
2019-01-08T08:29:34.832Z,3.20
2019-01-08T08:32:04.359Z,2.93
2019-01-08T08:34:33.726Z,3.00
2019-01-08T08:37:02.887Z,3.57
2019-01-08T08:39:31.950Z,3.47
2019-01-08T08:42:01.238Z,3.17
2019-01-08T08:44:30.360Z,4.40
2019-01-08T08:46:59.440Z,4.77
2019-01-08T08:49:28.699Z,3.80
2019-01-08T08:51:57.716Z,3.57
2019-01-08T08:54:26.703Z,3.67
2019-01-08T08:56:55.997Z,4.30
2019-01-08T08:59:25.073Z,3.90
2019-01-08T09:01:54.125Z,3.47
2019-01-08T09:04:23.487Z,3.97
2019-01-08T09:06:52.601Z,3.67
2019-01-08T09:09:21.714Z,3.57
2019-01-08T09:11:51.079Z,2.90
2019-01-08T09:14:20.167Z,2.80
2019-01-08T09:16:49.235Z,3.30
2019-01-08T09:19:18.878Z,3.20
2019-01-08T09:21:47.888Z,3.90
2019-01-08T09:24:17.226Z,2.93
2019-01-08T09:26:46.766Z,3.53
2019-01-08T09:29:15.829Z,4.60
2019-01-08T09:31:44.853Z,3.77
2019-01-08T09:34:13.860Z,3.43
2019-01-08T09:36:42.887Z,4.00
2019-01-08T09:39:11.963Z,4.50
2019-01-08T09:41:41.339Z,3.50
2019-01-08T09:44:10.408Z,4.37
2019-01-08T09:46:39.524Z,4.30
2019-01-08T09:49:08.572Z,5.53
2019-01-08T09:51:37.670Z,3.67
2019-01-08T09:54:06.828Z,4.33
2019-01-08T09:56:36.328Z,4.57
2019-01-08T09:59:05.444Z,4.43
2019-01-08T10:01:34.858Z,4.70
2019-01-08T10:04:04.435Z,4.60
2019-01-08T10:06:33.526Z,4.53
2019-01-08T10:09:02.606Z,5.60
2019-01-08T10:11:31.922Z,3.93
2019-01-08T10:14:00.998Z,4.23
2019-01-08T10:16:30.103Z,4.80
2019-01-08T10:18:59.506Z,4.40
2019-01-08T10:21:28.658Z,5.37
2019-01-08T10:23:57.810Z,4.57
2019-01-08T10:26:27.094Z,3.40
2019-01-08T10:28:56.150Z,3.97
2019-01-08T10:31:32.319Z,4.17
2019-01-08T10:33:56.245Z,4.30
2019-01-08T10:36:25.323Z,3.63
2019-01-08T10:38:54.326Z,4.17
2019-01-08T10:41:23.611Z,4.53
2019-01-08T10:43:52.692Z,4.30
2019-01-08T10:46:21.747Z,4.47
2019-01-08T10:48:51.212Z,3.83
2019-01-08T10:51:20.306Z,3.83
2019-01-08T10:53:49.385Z,4.47
2019-01-08T10:56:19.107Z,3.77
2019-01-08T10:58:48.096Z,4.53
2019-01-08T11:01:17.180Z,4.67
2019-01-08T11:03:46.438Z,5.50
2019-01-08T11:06:15.529Z,4.37
2019-01-08T11:08:44.667Z,4.67
2019-01-08T11:11:14.091Z,4.40
2019-01-08T11:13:43.205Z,4.67
2019-01-08T11:16:12.291Z,4.27
2019-01-08T11:18:41.595Z,4.87
2019-01-08T11:21:10.591Z,5.43
2019-01-08T11:23:39.608Z,5.00
2019-01-08T11:26:08.886Z,4.63
2019-01-08T11:28:37.978Z,4.40
2019-01-08T11:31:07.148Z,3.97
2019-01-08T11:33:36.676Z,4.62
2019-01-08T11:36:05.776Z,4.97
2019-01-08T11:38:34.921Z,4.77
2019-01-08T11:41:04.257Z,4.40
2019-01-08T11:43:33.349Z,4.43
2019-01-08T11:46:02.467Z,5.00
2019-01-08T11:48:31.964Z,3.80
2019-01-08T11:51:00.932Z,4.27
2019-01-08T11:53:30.010Z,3.67
2019-01-08T11:55:59.354Z,3.13
2019-01-08T11:58:29.163Z,3.63
2019-01-08T12:00:58.168Z,3.73
2019-01-08T12:03:27.275Z,6.20
2019-01-08T12:05:57.461Z,4.30
2019-01-08T12:08:26.499Z,4.33
2019-01-08T12:10:55.606Z,6.30
2019-01-08T12:13:24.860Z,5.00
2019-01-08T12:15:53.926Z,4.27
2019-01-08T12:18:23.046Z,4.17
2019-01-08T12:20:52.244Z,3.73
2019-01-08T12:23:21.249Z,4.57
2019-01-08T12:25:50.242Z,4.33
2019-01-08T12:28:19.434Z,4.87
2019-01-08T12:30:48.713Z,3.83
2019-01-08T12:33:17.767Z,4.63
2019-01-08T12:35:47.023Z,4.07
2019-01-08T12:38:17.630Z,3.77
2019-01-08T12:40:48.285Z,4.60
2019-01-08T12:43:17.395Z,3.63
2019-01-08T12:45:46.548Z,3.70
2019-01-08T12:48:15.983Z,3.73
2019-01-08T12:50:45.077Z,4.70
2019-01-08T12:53:14.149Z,4.17
2019-01-08T12:55:43.575Z,4.20
2019-01-08T12:58:12.593Z,4.20
2019-01-08T13:00:41.679Z,4.77
2019-01-08T13:03:11.077Z,4.73
2019-01-08T13:05:40.167Z,4.83
2019-01-08T13:08:09.272Z,4.20
2019-01-08T13:10:38.552Z,4.63
2019-01-08T13:13:07.678Z,4.50
2019-01-08T13:15:36.762Z,4.17
2019-01-08T13:18:06.153Z,4.50
2019-01-08T13:20:35.283Z,4.57
2019-01-08T13:23:04.389Z,5.03
2019-01-08T13:25:33.634Z,4.87
2019-01-08T13:28:02.775Z,4.87
2019-01-08T13:30:31.859Z,3.87
2019-01-08T13:33:01.121Z,5.23
2019-01-08T13:35:30.161Z,5.00
2019-01-08T13:37:59.252Z,4.30
2019-01-08T13:40:28.508Z,3.87
2019-01-08T13:42:57.604Z,4.00
2019-01-08T13:45:26.797Z,4.30
2019-01-08T13:47:56.120Z,4.60
2019-01-08T13:50:25.198Z,4.43
2019-01-08T13:52:54.336Z,4.27
2019-01-08T13:55:23.706Z,4.87
2019-01-08T13:57:52.784Z,4.20
2019-01-08T14:00:22.724Z,5.63
2019-01-08T14:02:52.128Z,5.07
2019-01-08T14:05:21.250Z,4.60
2019-01-08T14:07:50.343Z,5.27
2019-01-08T14:10:19.625Z,4.93
2019-01-08T14:12:48.714Z,5.20
2019-01-08T14:15:17.885Z,4.80
2019-01-08T14:17:47.308Z,4.70
2019-01-08T14:20:16.381Z,4.87
2019-01-08T14:22:45.399Z,4.10
2019-01-08T14:25:14.602Z,5.03
2019-01-08T14:27:43.718Z,5.28
2019-01-08T14:30:12.810Z,4.13
2019-01-08T14:32:42.153Z,4.20
2019-01-08T14:35:11.386Z,4.30
2019-01-08T14:37:40.501Z,4.93
2019-01-08T14:40:09.814Z,4.20
2019-01-08T14:42:38.833Z,4.73
2019-01-08T14:45:07.901Z,3.67
2019-01-08T14:47:37.163Z,3.87
2019-01-08T14:50:06.784Z,3.90
2019-01-08T14:52:35.807Z,3.60
2019-01-08T14:55:05.300Z,3.93
2019-01-08T14:57:34.515Z,4.93
2019-01-08T15:00:03.983Z,3.10
2019-01-08T15:02:33.373Z,3.57
2019-01-08T15:05:02.518Z,4.37
2019-01-08T15:07:31.593Z,3.43
2019-01-08T15:10:01.043Z,3.63
2019-01-08T15:12:30.235Z,3.90
2019-01-08T15:14:59.296Z,4.50
2019-01-08T15:17:28.703Z,3.43
2019-01-08T15:19:57.788Z,3.83
2019-01-08T15:22:26.958Z,3.60
2019-01-08T15:24:56.143Z,5.10
2019-01-08T15:27:25.225Z,3.60
2019-01-08T15:29:54.273Z,3.90
2019-01-08T15:32:23.553Z,3.80
2019-01-08T15:34:52.646Z,4.23
2019-01-08T15:37:21.832Z,4.17
2019-01-08T15:39:51.080Z,5.47
2019-01-08T15:42:20.195Z,3.93
2019-01-08T15:44:49.271Z,3.90
2019-01-08T15:47:19.237Z,6.43
2019-01-08T15:49:48.316Z,5.00
2019-01-08T15:52:17.411Z,4.77
2019-01-08T15:54:46.731Z,5.50
2019-01-08T15:57:16.046Z,4.50
2019-01-08T15:59:45.130Z,4.53
2019-01-08T16:02:14.570Z,4.50
2019-01-08T16:04:43.597Z,4.50
2019-01-08T16:07:13.674Z,4.33
2019-01-08T16:09:43.144Z,4.67
2019-01-08T16:12:12.284Z,4.73
2019-01-08T16:14:41.387Z,4.15
2019-01-08T16:17:10.732Z,4.27
2019-01-08T16:19:39.802Z,4.13
2019-01-08T16:22:08.917Z,3.83
2019-01-08T16:24:38.398Z,3.37
2019-01-08T16:27:10.702Z,4.73
2019-01-08T16:29:40.012Z,4.37
2019-01-08T16:32:09.758Z,3.70
2019-01-08T16:34:42.282Z,3.97
2019-01-08T16:37:11.980Z,4.43
2019-01-08T16:39:41.130Z,4.00
2019-01-08T16:42:13.338Z,4.13
2019-01-08T16:44:42.448Z,3.70
2019-01-08T16:47:11.539Z,3.05
2019-01-08T16:49:41.049Z,2.03
2019-01-08T16:52:10.278Z,1.97
2019-01-08T16:54:39.544Z,2.30
2019-01-08T16:57:09.579Z,3.37
2019-01-08T16:59:38.939Z,3.50
2019-01-08T17:02:10.181Z,4.10
2019-01-08T17:04:40.059Z,4.17
2019-01-08T17:07:09.745Z,3.60
2019-01-08T17:09:40.311Z,3.67
2019-01-08T17:12:21.141Z,3.70
2019-01-08T17:14:50.786Z,3.93
2019-01-08T17:17:25.717Z,3.37
2019-01-08T17:19:54.953Z,2.10
2019-01-08T17:22:24.034Z,2.80
2019-01-08T17:24:53.125Z,1.50
2019-01-08T17:27:26.983Z,2.55
2019-01-08T17:29:56.095Z,2.50
2019-01-08T17:32:25.306Z,3.07
2019-01-08T17:34:54.649Z,3.00
2019-01-08T17:37:23.763Z,3.83
2019-01-08T17:39:53.004Z,3.77
2019-01-08T17:42:24.559Z,3.60
2019-01-08T17:44:53.660Z,3.60
2019-01-08T17:47:23.649Z,3.63
2019-01-08T17:49:53.142Z,4.00
2019-01-08T17:52:22.244Z,3.13
2019-01-08T17:54:51.330Z,3.40
2019-01-08T17:57:20.936Z,4.00
2019-01-08T17:59:49.921Z,3.73
2019-01-08T18:02:54.551Z,4.63
2019-01-08T18:05:54.467Z,3.07
2019-01-08T18:11:23.785Z,3.93
2019-01-08T18:13:52.964Z,3.57
2019-01-08T18:16:22.051Z,3.47
2019-01-08T18:18:53.400Z,3.00
2019-01-08T18:21:22.513Z,3.50
2019-01-08T18:23:51.559Z,3.83
2019-01-08T18:26:20.808Z,4.03
2019-01-08T18:28:49.866Z,3.50
2019-01-08T18:31:18.946Z,3.47
2019-01-08T18:33:51.702Z,4.30
2019-01-08T18:36:19.150Z,4.13
2019-01-08T18:38:51.514Z,3.50
2019-01-08T18:41:23.344Z,4.10
2019-01-08T18:43:52.520Z,3.98
2019-01-08T18:46:21.591Z,4.30
2019-01-08T18:49:11.231Z,2.90
2019-01-08T18:51:40.286Z,4.07
2019-01-08T18:54:09.347Z,3.67
2019-01-08T18:56:38.624Z,3.87
2019-01-08T18:59:07.625Z,3.70
2019-01-08T19:01:36.833Z,3.87
2019-01-08T19:04:06.333Z,4.33
2019-01-08T19:06:35.571Z,3.20
2019-01-08T19:09:30.458Z,4.03
2019-01-08T19:11:59.859Z,3.17
2019-01-08T19:14:38.039Z,3.60
2019-01-08T19:17:07.217Z,2.30
2019-01-08T19:19:36.726Z,1.70
2019-01-08T19:22:08.083Z,2.33
2019-01-08T19:24:37.237Z,2.07
2019-01-08T19:27:06.307Z,2.60
2019-01-08T19:29:35.471Z,2.80
2019-01-08T19:32:04.555Z,2.60
2019-01-08T19:34:33.677Z,3.58
2019-01-08T19:37:04.187Z,3.03
2019-01-08T19:39:33.275Z,3.20
2019-01-08T19:42:02.351Z,3.37
2019-01-08T19:44:31.670Z,3.70
2019-01-08T19:47:00.787Z,3.63
2019-01-08T19:49:30.023Z,4.63
2019-01-08T19:51:59.500Z,4.23
2019-01-08T19:54:28.589Z,5.10
2019-01-08T19:56:57.676Z,3.93
2019-01-08T19:59:26.872Z,4.00
2019-01-08T20:01:55.894Z,4.57
2019-01-08T20:04:24.958Z,3.93
2019-01-08T20:06:54.356Z,4.50
2019-01-08T20:09:25.536Z,4.60
2019-01-08T20:11:54.253Z,4.13
2019-01-08T20:14:24.612Z,5.00
2019-01-08T20:16:53.724Z,4.13
2019-01-08T20:19:22.836Z,4.57
2019-01-08T20:21:52.132Z,4.40
2019-01-08T20:24:21.274Z,6.20
2019-01-08T20:26:50.347Z,4.20
2019-01-08T20:29:19.623Z,4.50
2019-01-08T20:31:48.732Z,4.37
2019-01-08T20:34:26.278Z,4.13
2019-01-08T20:36:48.954Z,4.43
2019-01-08T20:39:18.118Z,3.97
2019-01-08T20:41:47.195Z,4.73
2019-01-08T20:44:16.632Z,3.77
2019-01-08T20:46:45.741Z,4.30
2019-01-08T20:49:15.076Z,5.90
2019-01-08T20:51:45.249Z,4.03
2019-01-08T20:54:14.387Z,5.27
2019-01-08T20:56:43.531Z,3.90
2019-01-08T20:59:12.837Z,4.10
2019-01-08T21:01:41.817Z,3.87
2019-01-08T21:04:10.873Z,4.30
2019-01-08T21:06:40.129Z,5.27
2019-01-08T21:09:09.459Z,3.43
2019-01-08T21:11:38.517Z,4.33
2019-01-08T21:14:07.821Z,3.50
2019-01-08T21:16:39.975Z,4.10
2019-01-08T21:19:09.930Z,3.47
2019-01-08T21:21:39.393Z,3.90
2019-01-08T21:24:08.509Z,4.03
2019-01-08T21:26:37.651Z,3.23
2019-01-08T21:29:08.287Z,3.70
2019-01-08T21:31:37.358Z,3.47
2019-01-08T21:34:06.616Z,3.70
2019-01-08T21:36:35.872Z,2.80
2019-01-08T21:39:06.659Z,3.30
2019-01-08T21:41:35.854Z,2.40
2019-01-08T21:44:04.844Z,2.90
2019-01-08T21:46:33.922Z,3.60
2019-01-08T21:49:04.582Z,3.73
2019-01-08T21:51:33.659Z,3.80
2019-01-08T21:54:02.831Z,4.47
2019-01-08T21:56:32.169Z,3.10
2019-01-08T21:59:01.237Z,4.43
2019-01-08T22:01:30.390Z,4.27
2019-01-08T22:03:59.582Z,4.30
2019-01-08T22:06:29.122Z,4.47
2019-01-08T22:08:58.274Z,4.73
2019-01-08T22:11:27.556Z,3.63
2019-01-08T22:13:56.634Z,3.13
2019-01-08T22:16:26.610Z,3.60
2019-01-08T22:18:55.974Z,4.33
2019-01-08T22:21:25.131Z,3.50
2019-01-08T22:23:54.200Z,3.73
2019-01-08T22:26:23.485Z,3.60
2019-01-08T22:28:52.632Z,3.13
2019-01-08T22:31:21.807Z,3.83
2019-01-08T22:33:51.361Z,3.60
2019-01-08T22:36:20.479Z,3.20
2019-01-08T22:38:50.548Z,4.20
2019-01-08T22:41:19.981Z,4.00
2019-01-08T22:43:49.075Z,3.67
2019-01-08T22:46:18.205Z,4.30
2019-01-08T22:48:47.465Z,3.27
2019-01-08T22:51:16.547Z,3.67
2019-01-08T22:53:45.606Z,3.30
2019-01-08T22:56:15.173Z,3.17
2019-01-08T22:58:44.563Z,3.30
2019-01-08T23:01:19.613Z,2.83
2019-01-08T23:03:48.693Z,2.97
2019-01-08T23:06:17.849Z,1.60
2019-01-08T23:08:47.189Z,2.33
2019-01-08T23:11:16.299Z,2.97
2019-01-08T23:13:45.365Z,3.00
2019-01-08T23:16:14.782Z,2.80
2019-01-08T23:18:43.917Z,3.90
2019-01-08T23:21:12.989Z,3.63
2019-01-08T23:23:42.289Z,2.60
2019-01-08T23:26:11.759Z,3.27
2019-01-08T23:28:40.814Z,3.35
2019-01-08T23:31:10.300Z,3.00
2019-01-08T23:33:39.515Z,2.80
2019-01-08T23:36:08.587Z,1.97
2019-01-08T23:38:37.890Z,1.87
2019-01-08T23:41:06.991Z,1.20
2019-01-08T23:43:36.118Z,1.80
2019-01-08T23:46:05.361Z,0.97
2019-01-08T23:48:34.689Z,1.00
2019-01-08T23:51:03.848Z,2.00
2019-01-08T23:53:36.169Z,1.23
2019-01-08T23:56:06.490Z,1.83
2019-01-08T23:58:35.566Z,2.00
